createdAt,value
2019-02-25T00:02:05.181Z,1.22
2019-02-25T00:04:36.898Z,1.21
2019-02-25T00:07:07.530Z,1.14
2019-02-25T00:09:39.378Z,1.07
2019-02-25T00:12:10.655Z,1.01
2019-02-25T00:14:42.663Z,1.02
2019-02-25T00:17:13.710Z,1.00
2019-02-25T00:19:45.230Z,0.91
2019-02-25T00:22:16.504Z,0.79
2019-02-25T00:24:48.268Z,0.78
2019-02-25T00:27:19.701Z,0.75
2019-02-25T00:29:50.752Z,0.73
2019-02-25T00:32:22.462Z,0.73
2019-02-25T00:34:55.010Z,0.64
2019-02-25T00:37:26.126Z,0.65
2019-02-25T00:39:57.055Z,0.60
2019-02-25T00:42:29.044Z,0.54
2019-02-25T00:45:00.811Z,0.45
2019-02-25T00:47:33.782Z,0.33
2019-02-25T00:50:08.612Z,0.39
2019-02-25T00:52:39.821Z,0.25
2019-02-25T00:55:11.363Z,0.32
2019-02-25T00:57:42.416Z,0.37
2019-02-25T01:00:16.983Z,0.30
2019-02-25T01:02:48.807Z,0.31
2019-02-25T01:05:22.141Z,0.28
2019-02-25T01:07:54.350Z,0.32
2019-02-25T01:10:26.042Z,0.14
2019-02-25T01:12:57.031Z,0.14
2019-02-25T01:15:28.823Z,0.16
2019-02-25T01:18:00.156Z,0.23
2019-02-25T01:20:32.116Z,0.14
2019-02-25T01:23:03.665Z,0.19
2019-02-25T01:25:35.112Z,0.19
2019-02-25T01:28:07.965Z,0.16
2019-02-25T01:30:40.702Z,0.10
2019-02-25T01:33:11.544Z,0.07
2019-02-25T01:35:42.850Z,-0.03
2019-02-25T01:38:15.605Z,-0.03
2019-02-25T01:40:47.212Z,-0.08
2019-02-25T01:43:18.781Z,-0.08
2019-02-25T01:45:49.371Z,-0.04
2019-02-25T01:48:20.777Z,-0.06
2019-02-25T01:50:52.710Z,-0.06
2019-02-25T01:53:23.543Z,-0.03
2019-02-25T01:55:54.965Z,-0.03
2019-02-25T01:58:26.340Z,-0.08
2019-02-25T02:00:59.161Z,-0.06
2019-02-25T02:03:30.435Z,-0.05
2019-02-25T02:06:02.238Z,-0.14
2019-02-25T02:08:33.984Z,-0.15
2019-02-25T02:11:05.843Z,-0.19
2019-02-25T02:13:38.272Z,-0.19
2019-02-25T02:16:10.299Z,-0.17
2019-02-25T02:18:41.440Z,-0.15
2019-02-25T02:21:13.027Z,-0.14
2019-02-25T02:23:43.853Z,-0.11
2019-02-25T02:26:15.302Z,-0.10
2019-02-25T02:28:47.025Z,-0.13
2019-02-25T02:31:18.625Z,-0.05
2019-02-25T02:33:50.005Z,-0.03
2019-02-25T02:36:21.616Z,-0.05
2019-02-25T02:38:52.730Z,-0.05
2019-02-25T02:41:23.951Z,-0.12
2019-02-25T02:43:56.484Z,-0.17
2019-02-25T02:46:31.716Z,-0.20
2019-02-25T02:49:03.382Z,-0.19
2019-02-25T02:51:34.623Z,-0.13
2019-02-25T02:54:05.632Z,-0.07
2019-02-25T02:56:36.457Z,-0.08
2019-02-25T02:59:09.485Z,-0.09
2019-02-25T03:01:40.665Z,-0.20
2019-02-25T03:04:11.463Z,-0.07
2019-02-25T03:06:42.521Z,-0.09
2019-02-25T03:09:14.663Z,-0.11
2019-02-25T03:11:46.081Z,-0.10
2019-02-25T03:14:16.874Z,-0.06
2019-02-25T03:16:48.547Z,-0.07
2019-02-25T03:19:20.195Z,-0.03
2019-02-25T03:21:52.523Z,0.02
2019-02-25T03:24:25.072Z,-0.03
2019-02-25T03:26:56.399Z,0.15
2019-02-25T03:29:27.712Z,0.15
2019-02-25T03:31:58.857Z,0.12
2019-02-25T03:34:29.463Z,0.12
2019-02-25T03:37:00.903Z,0.32
2019-02-25T03:39:32.192Z,0.40
2019-02-25T03:42:04.124Z,0.40
2019-02-25T03:44:35.377Z,0.43
2019-02-25T03:47:06.372Z,0.44
2019-02-25T03:49:37.923Z,0.45
2019-02-25T03:52:10.235Z,0.45
2019-02-25T03:54:41.784Z,0.42
2019-02-25T03:57:17.265Z,0.43
2019-02-25T03:59:47.720Z,0.49
2019-02-25T04:02:19.838Z,0.53
2019-02-25T04:04:50.736Z,0.52
2019-02-25T04:07:22.820Z,0.54
2019-02-25T04:09:54.791Z,0.35
2019-02-25T04:12:26.903Z,0.35
2019-02-25T04:14:58.615Z,0.60
2019-02-25T04:17:29.478Z,0.42
2019-02-25T04:20:00.355Z,0.66
2019-02-25T04:22:31.916Z,0.73
2019-02-25T04:25:03.091Z,0.80
2019-02-25T04:27:34.097Z,0.80
2019-02-25T04:30:08.503Z,0.79
2019-02-25T04:32:39.668Z,0.77
2019-02-25T04:35:11.373Z,0.69
2019-02-25T04:37:41.982Z,0.78
2019-02-25T04:40:15.140Z,0.81
2019-02-25T04:42:47.017Z,0.90
2019-02-25T04:45:20.923Z,1.00
2019-02-25T04:47:51.968Z,1.05
2019-02-25T04:50:23.819Z,1.00
2019-02-25T04:52:54.996Z,1.00
2019-02-25T04:55:26.731Z,1.14
2019-02-25T04:57:58.704Z,1.12
2019-02-25T05:00:29.663Z,1.17
2019-02-25T05:03:00.137Z,1.21
2019-02-25T05:05:31.215Z,1.22
2019-02-25T05:08:02.634Z,1.21
2019-02-25T05:10:34.158Z,1.22
2019-02-25T05:13:06.402Z,1.23
2019-02-25T05:15:38.478Z,1.30
2019-02-25T05:18:11.290Z,1.36
2019-02-25T05:20:42.525Z,1.40
2019-02-25T05:23:14.089Z,1.40
2019-02-25T05:25:45.159Z,1.41
2019-02-25T05:28:17.088Z,1.44
2019-02-25T05:30:48.950Z,1.45
2019-02-25T05:33:20.250Z,1.47
2019-02-25T05:35:51.304Z,1.33
2019-02-25T05:38:23.460Z,1.46
2019-02-25T05:40:55.887Z,1.40
2019-02-25T05:43:26.825Z,1.40
2019-02-25T05:45:58.502Z,1.39
2019-02-25T05:48:29.780Z,1.32
2019-02-25T05:51:01.414Z,1.30
2019-02-25T05:53:31.940Z,1.24
2019-02-25T05:56:03.460Z,1.23
2019-02-25T05:58:34.540Z,1.18
2019-02-25T06:01:05.573Z,1.18
2019-02-25T06:03:36.977Z,1.20
2019-02-25T06:06:08.689Z,1.12
2019-02-25T06:08:40.141Z,1.12
2019-02-25T06:11:10.639Z,1.30
2019-02-25T06:13:41.171Z,1.33
2019-02-25T06:16:12.844Z,1.28
2019-02-25T06:18:43.660Z,1.27
2019-02-25T06:21:14.804Z,1.30
2019-02-25T06:23:46.665Z,1.30
2019-02-25T06:26:18.180Z,1.32
2019-02-25T06:28:49.769Z,1.35
2019-02-25T06:31:21.140Z,1.36
2019-02-25T06:33:52.262Z,1.42
2019-02-25T06:36:23.820Z,1.53
2019-02-25T06:38:55.194Z,1.57
2019-02-25T06:41:27.380Z,1.61
2019-02-25T06:43:58.620Z,1.64
2019-02-25T06:46:30.102Z,1.66
2019-02-25T06:49:01.300Z,1.70
2019-02-25T06:51:32.968Z,1.71
2019-02-25T06:54:03.371Z,1.71
2019-02-25T06:56:34.496Z,1.92
2019-02-25T06:59:06.455Z,1.99
2019-02-25T07:01:37.199Z,2.07
2019-02-25T07:04:10.429Z,2.15
2019-02-25T07:06:42.637Z,2.24
2019-02-25T07:09:15.907Z,2.36
2019-02-25T07:11:49.664Z,2.44
2019-02-25T07:14:22.183Z,2.56
2019-02-25T07:16:57.244Z,2.64
2019-02-25T07:19:30.262Z,2.71
2019-02-25T07:22:03.276Z,2.79
2019-02-25T07:24:35.823Z,2.90
2019-02-25T07:27:08.334Z,2.98
2019-02-25T07:29:41.421Z,3.09
2019-02-25T07:32:15.059Z,3.17
2019-02-25T07:34:48.759Z,3.24
2019-02-25T07:37:21.457Z,3.32
2019-02-25T07:39:54.441Z,3.41
2019-02-25T07:42:27.161Z,3.51
2019-02-25T07:45:00.153Z,3.60
2019-02-25T07:47:33.099Z,3.67
2019-02-25T07:50:07.061Z,3.73
2019-02-25T07:52:39.681Z,3.80
2019-02-25T07:55:13.391Z,3.81
2019-02-25T07:57:46.032Z,3.84
2019-02-25T08:00:19.052Z,3.91
2019-02-25T08:02:52.652Z,3.96
2019-02-25T08:05:26.109Z,3.95
2019-02-25T08:07:58.397Z,4.00
2019-02-25T08:10:31.792Z,4.06
2019-02-25T08:13:05.685Z,4.11
2019-02-25T08:15:39.338Z,4.13
2019-02-25T08:18:12.217Z,4.21
2019-02-25T08:20:45.376Z,4.24
2019-02-25T08:23:18.395Z,4.31
2019-02-25T08:25:52.053Z,4.39
2019-02-25T08:28:22.475Z,4.38
2019-02-25T08:30:55.566Z,4.35
2019-02-25T08:33:30.781Z,4.39
2019-02-25T08:36:06.171Z,4.44
2019-02-25T08:38:37.661Z,4.47
2019-02-25T08:41:14.483Z,4.59
2019-02-25T08:43:47.383Z,4.66
2019-02-25T08:46:19.975Z,4.69
2019-02-25T08:48:52.796Z,4.78
2019-02-25T08:51:24.141Z,4.91
2019-02-25T08:53:55.784Z,5.01
2019-02-25T08:56:28.917Z,5.10
2019-02-25T08:59:01.367Z,5.16
2019-02-25T09:01:32.660Z,5.27
2019-02-25T09:04:05.346Z,5.39
2019-02-25T09:06:36.649Z,5.50
2019-02-25T09:09:08.275Z,5.61
2019-02-25T09:11:40.174Z,5.70
2019-02-25T09:14:12.073Z,5.85
2019-02-25T09:16:43.988Z,5.94
2019-02-25T09:19:15.425Z,6.11
2019-02-25T09:21:46.739Z,6.09
2019-02-25T09:24:18.565Z,6.15
2019-02-25T09:26:49.723Z,6.24
2019-02-25T09:29:21.771Z,6.31
2019-02-25T09:31:53.224Z,6.44
2019-02-25T09:34:24.512Z,6.55
2019-02-25T09:36:57.205Z,6.60
2019-02-25T09:39:28.493Z,6.70
2019-02-25T09:41:59.805Z,6.81
2019-02-25T09:44:31.534Z,6.95
2019-02-25T09:47:05.161Z,7.00
2019-02-25T09:49:36.839Z,7.04
2019-02-25T09:52:10.348Z,7.11
2019-02-25T09:54:42.689Z,7.20
2019-02-25T09:57:15.316Z,7.21
2019-02-25T09:59:48.649Z,7.25
2019-02-25T10:02:20.014Z,7.28
2019-02-25T10:04:51.363Z,7.40
2019-02-25T10:07:24.220Z,7.49
2019-02-25T10:09:55.376Z,7.62
2019-02-25T10:12:26.662Z,7.77
2019-02-25T10:14:57.907Z,7.93
2019-02-25T10:17:29.162Z,8.07
2019-02-25T10:20:00.888Z,8.22
2019-02-25T10:22:33.856Z,8.41
2019-02-25T10:25:08.602Z,8.58
2019-02-25T10:27:41.323Z,8.72
2019-02-25T10:30:15.057Z,8.91
2019-02-25T10:32:46.605Z,8.97
2019-02-25T10:35:21.280Z,9.09
2019-02-25T10:37:53.704Z,9.17
2019-02-25T10:40:27.434Z,9.15
2019-02-25T10:42:57.916Z,9.32
2019-02-25T10:45:29.327Z,9.40
2019-02-25T10:48:01.192Z,9.58
2019-02-25T10:50:33.467Z,9.66
2019-02-25T10:53:06.889Z,9.78
2019-02-25T10:55:45.042Z,9.99
2019-02-25T10:58:15.873Z,10.07
2019-02-25T11:00:47.391Z,10.06
2019-02-25T11:03:21.739Z,10.09
2019-02-25T11:05:53.939Z,10.28
2019-02-25T11:08:26.942Z,10.24
2019-02-25T11:10:59.789Z,10.27
2019-02-25T11:13:33.591Z,10.30
2019-02-25T11:16:04.954Z,10.20
2019-02-25T11:18:37.277Z,10.20
2019-02-25T11:21:10.637Z,10.30
2019-02-25T11:23:43.407Z,10.37
2019-02-25T11:26:16.827Z,10.36
2019-02-25T11:28:49.230Z,10.45
2019-02-25T11:31:24.553Z,10.42
2019-02-25T11:33:56.254Z,10.54
2019-02-25T11:36:27.658Z,10.58
2019-02-25T11:39:00.666Z,10.81
2019-02-25T11:41:34.337Z,10.96
2019-02-25T11:44:05.306Z,11.13
2019-02-25T11:46:36.170Z,11.26
2019-02-25T11:49:07.302Z,11.37
2019-02-25T11:51:38.896Z,11.42
2019-02-25T11:54:11.137Z,11.58
2019-02-25T11:56:43.556Z,11.61
2019-02-25T11:59:16.452Z,11.68
2019-02-25T12:01:49.447Z,11.78
2019-02-25T12:04:20.941Z,11.80
2019-02-25T12:06:53.492Z,11.83
2019-02-25T12:09:25.843Z,11.66
2019-02-25T12:11:57.356Z,11.77
2019-02-25T12:14:29.144Z,11.75
2019-02-25T12:17:00.282Z,11.65
2019-02-25T12:19:31.261Z,11.75
2019-02-25T12:22:02.324Z,11.85
2019-02-25T12:24:34.772Z,11.96
2019-02-25T12:27:05.803Z,11.98
2019-02-25T12:29:38.056Z,12.14
2019-02-25T12:32:09.551Z,12.23
2019-02-25T12:34:40.824Z,12.28
2019-02-25T12:37:13.377Z,12.15
2019-02-25T12:39:44.537Z,12.16
2019-02-25T12:42:15.827Z,12.33
2019-02-25T12:44:46.686Z,12.39
2019-02-25T12:47:18.185Z,12.32
2019-02-25T12:49:49.415Z,12.31
2019-02-25T12:52:20.811Z,12.21
2019-02-25T12:54:52.140Z,12.17
2019-02-25T12:57:23.470Z,12.16
2019-02-25T12:59:55.091Z,12.22
2019-02-25T13:02:26.862Z,12.31
2019-02-25T13:04:58.320Z,12.40
2019-02-25T13:07:29.182Z,12.45
2019-02-25T13:10:00.299Z,12.37
2019-02-25T13:12:31.813Z,12.25
2019-02-25T13:15:12.871Z,12.24
2019-02-25T13:17:35.684Z,12.21
2019-02-25T13:20:09.711Z,12.20
2019-02-25T13:22:40.999Z,12.12
2019-02-25T13:25:16.133Z,12.18
2019-02-25T13:27:48.994Z,12.22
2019-02-25T13:30:21.494Z,12.23
2019-02-25T13:32:52.720Z,12.16
2019-02-25T13:35:24.283Z,12.20
2019-02-25T13:37:55.383Z,12.28
2019-02-25T13:40:27.942Z,12.16
2019-02-25T13:42:59.593Z,12.18
2019-02-25T13:45:31.140Z,12.18
2019-02-25T13:48:02.374Z,12.15
2019-02-25T13:50:34.601Z,12.16
2019-02-25T13:53:05.426Z,12.23
2019-02-25T13:55:41.671Z,12.30
2019-02-25T13:58:15.016Z,12.33
2019-02-25T14:00:47.956Z,12.31
2019-02-25T14:03:19.708Z,12.39
2019-02-25T14:05:50.727Z,12.33
2019-02-25T14:08:24.682Z,12.35
2019-02-25T14:10:56.104Z,12.47
2019-02-25T14:13:27.593Z,12.56
2019-02-25T14:15:58.529Z,12.55
2019-02-25T14:18:29.714Z,12.55
2019-02-25T14:21:00.263Z,12.65
2019-02-25T14:23:40.526Z,12.64
2019-02-25T14:26:11.934Z,12.63
2019-02-25T14:28:46.724Z,12.59
2019-02-25T14:31:19.515Z,12.60
2019-02-25T14:33:52.359Z,12.68
2019-02-25T14:36:22.868Z,12.67
2019-02-25T14:38:59.479Z,12.65
2019-02-25T14:41:34.728Z,12.67
2019-02-25T14:44:10.767Z,12.62
2019-02-25T14:46:42.975Z,12.49
2019-02-25T14:49:25.792Z,12.37
2019-02-25T14:52:02.630Z,12.33
2019-02-25T14:54:40.339Z,12.25
2019-02-25T14:57:16.831Z,12.24
2019-02-25T14:59:48.033Z,12.11
2019-02-25T15:02:23.857Z,12.04
2019-02-25T15:04:57.925Z,12.01
2019-02-25T15:07:29.019Z,11.93
2019-02-25T15:10:02.092Z,11.82
2019-02-25T15:12:35.768Z,11.77
2019-02-25T15:15:09.846Z,11.70
2019-02-25T15:17:42.008Z,11.63
2019-02-25T15:20:18.627Z,11.55
2019-02-25T15:22:51.283Z,11.50
2019-02-25T15:25:22.865Z,11.51
2019-02-25T15:27:55.528Z,11.50
2019-02-25T15:30:30.377Z,11.44
2019-02-25T15:33:00.587Z,11.40
2019-02-25T15:35:34.537Z,11.30
2019-02-25T15:38:04.659Z,11.24
2019-02-25T15:40:35.618Z,11.18
2019-02-25T15:43:12.689Z,11.12
2019-02-25T15:45:43.107Z,11.08
2019-02-25T15:48:16.760Z,11.03
2019-02-25T15:50:50.322Z,10.97
2019-02-25T15:53:21.260Z,10.91
2019-02-25T15:55:52.797Z,10.77
2019-02-25T15:58:24.147Z,10.72
2019-02-25T16:00:55.901Z,10.66
2019-02-25T16:03:27.326Z,10.57
2019-02-25T16:06:01.579Z,10.55
2019-02-25T16:08:33.449Z,10.48
2019-02-25T16:11:05.395Z,10.40
2019-02-25T16:13:37.807Z,10.33
2019-02-25T16:16:09.353Z,10.27
2019-02-25T16:18:40.548Z,10.25
2019-02-25T16:21:14.769Z,10.22
2019-02-25T16:23:48.187Z,10.12
2019-02-25T16:26:20.095Z,10.05
2019-02-25T16:28:53.166Z,9.99
2019-02-25T16:31:26.453Z,9.93
2019-02-25T16:33:57.892Z,9.89
2019-02-25T16:36:31.146Z,9.78
2019-02-25T16:39:07.237Z,9.72
2019-02-25T16:41:41.763Z,9.70
2019-02-25T16:44:12.901Z,9.61
2019-02-25T16:46:46.774Z,9.56
2019-02-25T16:49:17.976Z,9.54
2019-02-25T16:51:51.070Z,9.50
2019-02-25T16:54:23.442Z,9.48
2019-02-25T16:56:58.330Z,9.48
2019-02-25T16:59:29.924Z,9.46
2019-02-25T17:02:02.311Z,9.37
2019-02-25T17:04:34.816Z,9.33
2019-02-25T17:07:05.932Z,9.26
2019-02-25T17:09:39.152Z,9.23
2019-02-25T17:12:10.832Z,9.25
2019-02-25T17:14:42.398Z,9.23
2019-02-25T17:17:14.980Z,9.21
2019-02-25T17:19:47.445Z,9.18
2019-02-25T17:22:18.763Z,9.19
2019-02-25T17:24:50.123Z,9.27
2019-02-25T17:27:23.001Z,9.27
2019-02-25T17:29:55.555Z,9.27
2019-02-25T17:32:27.209Z,9.27
2019-02-25T17:35:00.205Z,9.28
2019-02-25T17:37:33.835Z,9.24
2019-02-25T17:40:08.539Z,9.27
2019-02-25T17:42:42.575Z,9.30
2019-02-25T17:45:19.727Z,9.32
2019-02-25T17:47:58.194Z,9.34
2019-02-25T17:50:26.404Z,9.32
2019-02-25T17:52:58.714Z,9.32
2019-02-25T17:55:33.884Z,9.31
2019-02-25T17:58:04.866Z,9.28
2019-02-25T18:00:39.488Z,9.31
2019-02-25T18:03:11.126Z,9.31
2019-02-25T18:05:44.073Z,9.31
2019-02-25T18:08:15.430Z,9.28
2019-02-25T18:10:49.684Z,9.23
2019-02-25T18:13:21.938Z,9.22
2019-02-25T18:16:08.588Z,9.16
2019-02-25T18:18:41.639Z,9.16
2019-02-25T18:21:14.098Z,9.13
2019-02-25T18:23:45.058Z,9.12
2019-02-25T18:26:31.039Z,9.12
2019-02-25T18:29:11.706Z,9.09
2019-02-25T18:31:42.844Z,9.09
2019-02-25T18:34:13.737Z,9.03
2019-02-25T18:36:49.040Z,8.99
2019-02-25T18:39:25.252Z,8.91
2019-02-25T18:42:00.981Z,8.92
2019-02-25T18:44:33.388Z,8.86
2019-02-25T18:47:16.901Z,8.81
2019-02-25T18:49:50.439Z,8.80
2019-02-25T18:52:25.927Z,8.76
2019-02-25T18:55:02.870Z,8.76
2019-02-25T18:57:37.470Z,8.72
2019-02-25T19:00:15.677Z,8.61
2019-02-25T19:02:49.758Z,8.57
2019-02-25T19:05:22.904Z,8.59
2019-02-25T19:07:55.522Z,8.55
2019-02-25T19:10:26.922Z,8.47
2019-02-25T19:13:01.031Z,8.44
2019-02-25T19:15:33.198Z,8.40
2019-02-25T19:18:06.455Z,8.36
2019-02-25T19:20:38.853Z,8.40
2019-02-25T19:23:11.729Z,8.37
2019-02-25T19:25:43.116Z,8.28
2019-02-25T19:28:18.750Z,8.32
2019-02-25T19:30:47.398Z,8.30
2019-02-25T19:33:20.458Z,8.29
2019-02-25T19:35:52.541Z,8.24
2019-02-25T19:38:25.864Z,8.20
2019-02-25T19:40:57.603Z,8.14
2019-02-25T19:43:28.617Z,8.10
2019-02-25T19:46:01.611Z,8.06
2019-02-25T19:48:33.575Z,8.05
2019-02-25T19:51:06.245Z,7.98
2019-02-25T19:53:38.827Z,7.96
2019-02-25T19:56:11.096Z,7.94
2019-02-25T19:58:43.019Z,7.95
2019-02-25T20:01:14.130Z,7.97
2019-02-25T20:03:47.492Z,7.94
2019-02-25T20:06:21.043Z,7.91
2019-02-25T20:08:56.391Z,7.90
2019-02-25T20:11:32.783Z,7.87
2019-02-25T20:14:03.635Z,7.85
2019-02-25T20:16:34.487Z,7.87
2019-02-25T20:19:06.803Z,7.90
2019-02-25T20:21:38.124Z,7.87
2019-02-25T20:24:12.365Z,7.90
2019-02-25T20:26:41.729Z,7.89
2019-02-25T20:29:13.065Z,7.88
2019-02-25T20:31:44.332Z,7.89
2019-02-25T20:34:18.464Z,7.88
2019-02-25T20:36:57.842Z,7.92
2019-02-25T20:39:38.678Z,7.91
2019-02-25T20:42:21.711Z,7.89
2019-02-25T20:44:55.290Z,7.87
2019-02-25T20:47:28.657Z,7.88
2019-02-25T20:50:00.608Z,7.88
2019-02-25T20:52:34.564Z,7.88
2019-02-25T20:55:10.814Z,7.86
2019-02-25T20:57:41.799Z,7.81
2019-02-25T21:00:17.605Z,7.81
2019-02-25T21:02:48.783Z,7.85
2019-02-25T21:05:22.828Z,7.87
2019-02-25T21:07:55.497Z,7.82
2019-02-25T21:10:29.308Z,7.83
2019-02-25T21:13:02.071Z,7.85
2019-02-25T21:15:35.470Z,7.84
2019-02-25T21:18:07.700Z,7.84
2019-02-25T21:20:38.296Z,7.88
2019-02-25T21:23:12.532Z,7.91
2019-02-25T21:25:55.420Z,7.93
2019-02-25T21:28:33.494Z,7.91
2019-02-25T21:31:11.957Z,7.91
2019-02-25T21:33:45.004Z,7.94
2019-02-25T21:36:18.196Z,7.94
2019-02-25T21:38:51.605Z,7.92
2019-02-25T21:41:23.949Z,8.00
2019-02-25T21:43:58.648Z,8.08
2019-02-25T21:46:44.109Z,8.09
2019-02-25T21:49:27.017Z,8.10
2019-02-25T21:52:02.501Z,8.14
2019-02-25T21:54:37.761Z,8.17
2019-02-25T21:57:09.921Z,8.23
2019-02-25T21:59:56.306Z,8.29
2019-02-25T22:02:29.121Z,8.32
2019-02-25T22:05:01.287Z,8.38
2019-02-25T22:07:33.150Z,8.43
2019-02-25T22:10:08.363Z,8.46
2019-02-25T22:12:44.343Z,8.47
2019-02-25T22:15:18.015Z,8.46
2019-02-25T22:17:52.998Z,8.47
2019-02-25T22:20:24.974Z,8.53
2019-02-25T22:22:57.431Z,8.53
2019-02-25T22:25:29.644Z,8.56
2019-02-25T22:28:03.234Z,8.57
2019-02-25T22:30:34.124Z,8.61
2019-02-25T22:33:07.115Z,8.62
2019-02-25T22:35:40.056Z,8.67
2019-02-25T22:38:10.880Z,8.68
2019-02-25T22:40:41.809Z,8.69
2019-02-25T22:43:14.194Z,8.67
2019-02-25T22:45:45.528Z,8.68
2019-02-25T22:48:18.580Z,8.66
2019-02-25T22:50:51.274Z,8.71
2019-02-25T22:53:22.164Z,8.70
2019-02-25T22:55:54.755Z,8.70
2019-02-25T22:58:27.897Z,8.72
2019-02-25T23:01:01.343Z,8.72
2019-02-25T23:03:34.257Z,8.71
2019-02-25T23:06:09.270Z,8.69
2019-02-25T23:08:40.181Z,8.70
2019-02-25T23:11:12.543Z,8.67
2019-02-25T23:13:45.711Z,8.68
2019-02-25T23:16:18.658Z,8.65
2019-02-25T23:18:50.773Z,8.64
2019-02-25T23:21:24.051Z,8.62
2019-02-25T23:23:55.878Z,8.65
2019-02-25T23:26:27.332Z,8.63
2019-02-25T23:28:59.811Z,8.59
2019-02-25T23:31:31.166Z,8.57
2019-02-25T23:34:02.869Z,8.58
2019-02-25T23:36:34.207Z,8.59
2019-02-25T23:39:06.607Z,8.58
2019-02-25T23:41:38.987Z,8.58
2019-02-25T23:44:12.516Z,8.56
2019-02-25T23:46:43.119Z,8.55
2019-02-25T23:49:14.718Z,8.55
2019-02-25T23:51:48.058Z,8.54
2019-02-25T23:54:21.374Z,8.53
2019-02-25T23:56:53.947Z,8.54
2019-02-25T23:59:27.182Z,8.54
